sensor_id;sensor_type;location;lat;lon;timestamp;temperature;humidity
11009;DHT22;5557;51.670;7.788;2023-06-26T00:00:19;21.40;34.80
11009;DHT22;5557;51.670;7.788;2023-06-26T00:02:46;21.30;34.00
11009;DHT22;5557;51.670;7.788;2023-06-26T00:05:13;21.30;33.80
11009;DHT22;5557;51.670;7.788;2023-06-26T00:07:40;21.30;34.10
11009;DHT22;5557;51.670;7.788;2023-06-26T00:10:07;21.30;35.50
11009;DHT22;5557;51.670;7.788;2023-06-26T00:12:35;21.30;38.50
11009;DHT22;5557;51.670;7.788;2023-06-26T00:15:02;21.30;36.00
11009;DHT22;5557;51.670;7.788;2023-06-26T00:17:29;21.30;38.70
11009;DHT22;5557;51.670;7.788;2023-06-26T00:19:57;21.30;37.70
11009;DHT22;5557;51.670;7.788;2023-06-26T00:22:24;21.30;37.90
11009;DHT22;5557;51.670;7.788;2023-06-26T00:24:51;21.20;39.60
11009;DHT22;5557;51.670;7.788;2023-06-26T00:27:20;21.10;39.90
11009;DHT22;5557;51.670;7.788;2023-06-26T00:29:49;21.10;40.90
11009;DHT22;5557;51.670;7.788;2023-06-26T00:32:16;21.10;40.80
11009;DHT22;5557;51.670;7.788;2023-06-26T00:34:49;21.00;42.30
11009;DHT22;5557;51.670;7.788;2023-06-26T00:37:19;21.00;44.80
11009;DHT22;5557;51.670;7.788;2023-06-26T00:39:49;20.90;45.70
11009;DHT22;5557;51.670;7.788;2023-06-26T00:42:16;20.80;44.90
11009;DHT22;5557;51.670;7.788;2023-06-26T00:44:43;20.80;45.50
11009;DHT22;5557;51.670;7.788;2023-06-26T00:47:14;20.70;47.10
11009;DHT22;5557;51.670;7.788;2023-06-26T00:49:42;20.70;46.50
11009;DHT22;5557;51.670;7.788;2023-06-26T00:52:09;20.60;49.40
11009;DHT22;5557;51.670;7.788;2023-06-26T00:54:39;20.50;49.20
11009;DHT22;5557;51.670;7.788;2023-06-26T00:57:06;20.50;51.30
11009;DHT22;5557;51.670;7.788;2023-06-26T00:59:34;20.40;52.60
11009;DHT22;5557;51.670;7.788;2023-06-26T01:02:02;20.40;53.00
11009;DHT22;5557;51.670;7.788;2023-06-26T01:04:29;20.30;54.40
11009;DHT22;5557;51.670;7.788;2023-06-26T01:06:59;20.30;54.50
11009;DHT22;5557;51.670;7.788;2023-06-26T01:09:29;20.20;55.00
11009;DHT22;5557;51.670;7.788;2023-06-26T01:11:56;20.20;55.30
11009;DHT22;5557;51.670;7.788;2023-06-26T01:14:24;20.10;55.30
11009;DHT22;5557;51.670;7.788;2023-06-26T01:16:51;20.10;54.40
11009;DHT22;5557;51.670;7.788;2023-06-26T01:19:20;20.10;54.60
11009;DHT22;5557;51.670;7.788;2023-06-26T01:22:00;20.10;55.10
11009;DHT22;5557;51.670;7.788;2023-06-26T01:24:33;20.00;54.00
11009;DHT22;5557;51.670;7.788;2023-06-26T01:27:03;20.00;52.40
11009;DHT22;5557;51.670;7.788;2023-06-26T01:29:32;19.90;54.10
11009;DHT22;5557;51.670;7.788;2023-06-26T01:32:00;19.90;54.20
11009;DHT22;5557;51.670;7.788;2023-06-26T01:34:28;19.90;52.80
11009;DHT22;5557;51.670;7.788;2023-06-26T01:36:56;19.80;51.20
11009;DHT22;5557;51.670;7.788;2023-06-26T01:39:24;19.70;49.80
11009;DHT22;5557;51.670;7.788;2023-06-26T01:41:52;19.70;48.20
11009;DHT22;5557;51.670;7.788;2023-06-26T01:44:28;19.70;47.50
11009;DHT22;5557;51.670;7.788;2023-06-26T01:47:04;19.70;47.10
11009;DHT22;5557;51.670;7.788;2023-06-26T01:49:52;19.70;46.00
11009;DHT22;5557;51.670;7.788;2023-06-26T01:52:46;19.70;43.20
11009;DHT22;5557;51.670;7.788;2023-06-26T01:57:56;19.70;39.30
11009;DHT22;5557;51.670;7.788;2023-06-26T02:00:24;19.60;40.10
11009;DHT22;5557;51.670;7.788;2023-06-26T02:02:52;19.50;41.80
11009;DHT22;5557;51.670;7.788;2023-06-26T02:05:19;19.50;41.20
11009;DHT22;5557;51.670;7.788;2023-06-26T02:07:46;19.40;42.70
11009;DHT22;5557;51.670;7.788;2023-06-26T02:10:13;19.40;43.70
11009;DHT22;5557;51.670;7.788;2023-06-26T02:12:41;19.40;40.40
11009;DHT22;5557;51.670;7.788;2023-06-26T02:15:09;19.40;38.30
11009;DHT22;5557;51.670;7.788;2023-06-26T02:17:36;19.40;36.70
11009;DHT22;5557;51.670;7.788;2023-06-26T02:20:03;19.30;35.40
11009;DHT22;5557;51.670;7.788;2023-06-26T02:22:30;19.30;35.60
11009;DHT22;5557;51.670;7.788;2023-06-26T02:24:57;19.30;36.70
11009;DHT22;5557;51.670;7.788;2023-06-26T02:27:24;19.20;36.40
11009;DHT22;5557;51.670;7.788;2023-06-26T02:29:52;19.30;35.50
11009;DHT22;5557;51.670;7.788;2023-06-26T02:32:19;19.30;32.10
11009;DHT22;5557;51.670;7.788;2023-06-26T02:34:47;19.50;27.30
11009;DHT22;5557;51.670;7.788;2023-06-26T02:37:14;19.50;24.50
11009;DHT22;5557;51.670;7.788;2023-06-26T02:39:44;19.60;24.60
11009;DHT22;5557;51.670;7.788;2023-06-26T02:42:12;19.60;22.70
11009;DHT22;5557;51.670;7.788;2023-06-26T02:44:40;19.60;18.40
11009;DHT22;5557;51.670;7.788;2023-06-26T02:47:08;19.60;15.70
11009;DHT22;5557;51.670;7.788;2023-06-26T02:49:36;19.70;15.90
11009;DHT22;5557;51.670;7.788;2023-06-26T02:52:03;19.70;16.00
11009;DHT22;5557;51.670;7.788;2023-06-26T02:54:30;19.60;15.70
11009;DHT22;5557;51.670;7.788;2023-06-26T02:56:57;19.60;15.90
11009;DHT22;5557;51.670;7.788;2023-06-26T02:59:26;19.50;17.50
11009;DHT22;5557;51.670;7.788;2023-06-26T03:01:53;19.40;21.70
11009;DHT22;5557;51.670;7.788;2023-06-26T03:04:20;19.40;24.50
11009;DHT22;5557;51.670;7.788;2023-06-26T03:06:48;19.30;24.00
11009;DHT22;5557;51.670;7.788;2023-06-26T03:09:15;19.20;24.50
11009;DHT22;5557;51.670;7.788;2023-06-26T03:11:44;19.20;27.70
11009;DHT22;5557;51.670;7.788;2023-06-26T03:14:11;19.20;27.90
11009;DHT22;5557;51.670;7.788;2023-06-26T03:16:39;19.10;29.70
11009;DHT22;5557;51.670;7.788;2023-06-26T03:19:06;19.10;33.40
11009;DHT22;5557;51.670;7.788;2023-06-26T03:21:33;19.10;33.50
11009;DHT22;5557;51.670;7.788;2023-06-26T03:24:00;19.10;32.40
11009;DHT22;5557;51.670;7.788;2023-06-26T03:26:27;19.10;34.50
11009;DHT22;5557;51.670;7.788;2023-06-26T03:28:55;19.10;34.80
11009;DHT22;5557;51.670;7.788;2023-06-26T03:31:22;19.10;40.20
11009;DHT22;5557;51.670;7.788;2023-06-26T03:33:49;19.10;39.60
11009;DHT22;5557;51.670;7.788;2023-06-26T03:36:16;19.20;38.80
11009;DHT22;5557;51.670;7.788;2023-06-26T03:38:45;19.20;37.00
11009;DHT22;5557;51.670;7.788;2023-06-26T03:41:11;19.30;33.40
11009;DHT22;5557;51.670;7.788;2023-06-26T03:43:39;19.30;31.60
11009;DHT22;5557;51.670;7.788;2023-06-26T03:46:06;19.40;29.60
11009;DHT22;5557;51.670;7.788;2023-06-26T03:48:35;19.60;28.00
11009;DHT22;5557;51.670;7.788;2023-06-26T03:51:02;20.00;23.00
11009;DHT22;5557;51.670;7.788;2023-06-26T03:53:29;20.60;13.00
11009;DHT22;5557;51.670;7.788;2023-06-26T03:55:58;21.40;1.20
11009;DHT22;5557;51.670;7.788;2023-06-26T03:58:26;22.00;1.00
11009;DHT22;5557;51.670;7.788;2023-06-26T04:00:53;22.50;1.00
11009;DHT22;5557;51.670;7.788;2023-06-26T04:03:20;22.90;1.00
11009;DHT22;5557;51.670;7.788;2023-06-26T04:05:47;23.30;1.00
11009;DHT22;5557;51.670;7.788;2023-06-26T04:08:14;23.70;1.00
11009;DHT22;5557;51.670;7.788;2023-06-26T04:10:41;24.00;1.00
11009;DHT22;5557;51.670;7.788;2023-06-26T04:13:08;24.20;1.00
11009;DHT22;5557;51.670;7.788;2023-06-26T04:15:35;24.40;1.00
11009;DHT22;5557;51.670;7.788;2023-06-26T04:18:04;24.60;1.00
11009;DHT22;5557;51.670;7.788;2023-06-26T04:20:32;25.10;1.00
11009;DHT22;5557;51.670;7.788;2023-06-26T04:23:02;25.50;1.00
11009;DHT22;5557;51.670;7.788;2023-06-26T04:25:29;25.70;1.00
11009;DHT22;5557;51.670;7.788;2023-06-26T04:27:59;25.70;1.00
11009;DHT22;5557;51.670;7.788;2023-06-26T04:30:26;25.90;1.00
11009;DHT22;5557;51.670;7.788;2023-06-26T04:32:53;26.20;1.00
11009;DHT22;5557;51.670;7.788;2023-06-26T04:35:21;26.40;1.00
11009;DHT22;5557;51.670;7.788;2023-06-26T04:37:49;26.70;1.00
11009;DHT22;5557;51.670;7.788;2023-06-26T04:40:16;26.80;1.00
11009;DHT22;5557;51.670;7.788;2023-06-26T04:42:43;27.20;1.00
11009;DHT22;5557;51.670;7.788;2023-06-26T04:45:10;27.40;1.00
11009;DHT22;5557;51.670;7.788;2023-06-26T04:47:37;27.50;1.00
11009;DHT22;5557;51.670;7.788;2023-06-26T04:50:05;27.60;1.00
11009;DHT22;5557;51.670;7.788;2023-06-26T04:52:32;28.00;1.00
11009;DHT22;5557;51.670;7.788;2023-06-26T04:55:02;28.40;1.00
11009;DHT22;5557;51.670;7.788;2023-06-26T04:57:29;28.50;1.00
11009;DHT22;5557;51.670;7.788;2023-06-26T04:59:56;28.40;1.00
11009;DHT22;5557;51.670;7.788;2023-06-26T05:02:23;28.30;1.00
11009;DHT22;5557;51.670;7.788;2023-06-26T05:04:50;28.60;1.00
11009;DHT22;5557;51.670;7.788;2023-06-26T05:07:17;29.20;1.00
11009;DHT22;5557;51.670;7.788;2023-06-26T05:09:44;29.40;1.00
11009;DHT22;5557;51.670;7.788;2023-06-26T05:12:11;29.30;1.00
11009;DHT22;5557;51.670;7.788;2023-06-26T05:14:39;29.40;1.00
11009;DHT22;5557;51.670;7.788;2023-06-26T05:17:06;29.30;1.00
11009;DHT22;5557;51.670;7.788;2023-06-26T05:19:33;29.50;1.00
11009;DHT22;5557;51.670;7.788;2023-06-26T05:22:01;29.70;1.00
11009;DHT22;5557;51.670;7.788;2023-06-26T05:24:35;29.60;1.00
11009;DHT22;5557;51.670;7.788;2023-06-26T05:27:02;29.30;1.00
11009;DHT22;5557;51.670;7.788;2023-06-26T05:29:33;29.10;1.00
11009;DHT22;5557;51.670;7.788;2023-06-26T05:32:05;29.30;1.00
11009;DHT22;5557;51.670;7.788;2023-06-26T05:34:32;29.50;1.00
11009;DHT22;5557;51.670;7.788;2023-06-26T05:37:01;29.40;1.00
11009;DHT22;5557;51.670;7.788;2023-06-26T05:39:29;29.30;1.00
11009;DHT22;5557;51.670;7.788;2023-06-26T05:41:56;29.10;1.00
11009;DHT22;5557;51.670;7.788;2023-06-26T05:44:25;29.20;1.00
11009;DHT22;5557;51.670;7.788;2023-06-26T05:46:52;29.00;1.00
11009;DHT22;5557;51.670;7.788;2023-06-26T05:49:19;29.10;1.00
11009;DHT22;5557;51.670;7.788;2023-06-26T05:51:46;28.90;1.00
11009;DHT22;5557;51.670;7.788;2023-06-26T05:54:14;29.00;1.00
11009;DHT22;5557;51.670;7.788;2023-06-26T05:56:41;29.10;1.00
11009;DHT22;5557;51.670;7.788;2023-06-26T05:59:10;29.20;1.00
11009;DHT22;5557;51.670;7.788;2023-06-26T06:01:38;29.00;1.00
11009;DHT22;5557;51.670;7.788;2023-06-26T06:04:05;28.70;1.00
11009;DHT22;5557;51.670;7.788;2023-06-26T06:06:32;28.50;1.00
11009;DHT22;5557;51.670;7.788;2023-06-26T06:08:59;28.20;1.00
11009;DHT22;5557;51.670;7.788;2023-06-26T06:11:28;28.30;1.00
11009;DHT22;5557;51.670;7.788;2023-06-26T06:13:55;28.70;1.00
11009;DHT22;5557;51.670;7.788;2023-06-26T06:16:22;28.70;1.00
11009;DHT22;5557;51.670;7.788;2023-06-26T06:18:49;28.10;1.00
11009;DHT22;5557;51.670;7.788;2023-06-26T06:21:16;28.00;1.00
11009;DHT22;5557;51.670;7.788;2023-06-26T06:23:43;27.80;1.00
11009;DHT22;5557;51.670;7.788;2023-06-26T06:26:10;28.00;1.00
11009;DHT22;5557;51.670;7.788;2023-06-26T06:28:39;28.20;1.00
11009;DHT22;5557;51.670;7.788;2023-06-26T06:31:08;28.10;1.00
11009;DHT22;5557;51.670;7.788;2023-06-26T06:33:35;28.10;1.00
11009;DHT22;5557;51.670;7.788;2023-06-26T06:36:03;28.20;1.00
11009;DHT22;5557;51.670;7.788;2023-06-26T06:38:31;28.10;1.00
11009;DHT22;5557;51.670;7.788;2023-06-26T06:40:58;28.20;1.00
11009;DHT22;5557;51.670;7.788;2023-06-26T06:43:25;28.50;1.00
11009;DHT22;5557;51.670;7.788;2023-06-26T06:45:52;28.60;1.00
11009;DHT22;5557;51.670;7.788;2023-06-26T06:48:20;28.40;1.00
11009;DHT22;5557;51.670;7.788;2023-06-26T06:50:48;28.20;1.00
11009;DHT22;5557;51.670;7.788;2023-06-26T06:53:14;27.50;1.00
11009;DHT22;5557;51.670;7.788;2023-06-26T06:55:42;27.30;1.00
11009;DHT22;5557;51.670;7.788;2023-06-26T06:58:09;27.00;1.00
11009;DHT22;5557;51.670;7.788;2023-06-26T07:00:36;26.70;1.00
11009;DHT22;5557;51.670;7.788;2023-06-26T07:03:03;26.30;1.00
11009;DHT22;5557;51.670;7.788;2023-06-26T07:05:30;25.90;1.00
11009;DHT22;5557;51.670;7.788;2023-06-26T07:07:58;25.90;1.00
11009;DHT22;5557;51.670;7.788;2023-06-26T07:10:28;26.40;1.00
11009;DHT22;5557;51.670;7.788;2023-06-26T07:12:55;27.00;1.00
11009;DHT22;5557;51.670;7.788;2023-06-26T07:15:22;27.50;1.00
11009;DHT22;5557;51.670;7.788;2023-06-26T07:17:51;27.70;1.00
11009;DHT22;5557;51.670;7.788;2023-06-26T07:20:18;28.20;1.00
11009;DHT22;5557;51.670;7.788;2023-06-26T07:22:45;28.30;1.00
11009;DHT22;5557;51.670;7.788;2023-06-26T07:25:12;27.80;1.00
11009;DHT22;5557;51.670;7.788;2023-06-26T07:27:40;27.40;1.00
11009;DHT22;5557;51.670;7.788;2023-06-26T07:30:08;27.50;1.00
11009;DHT22;5557;51.670;7.788;2023-06-26T07:32:36;27.60;1.00
11009;DHT22;5557;51.670;7.788;2023-06-26T07:35:04;27.70;1.00
11009;DHT22;5557;51.670;7.788;2023-06-26T07:37:31;27.70;1.00
11009;DHT22;5557;51.670;7.788;2023-06-26T07:40:01;28.20;1.00
11009;DHT22;5557;51.670;7.788;2023-06-26T07:42:29;28.40;1.00
11009;DHT22;5557;51.670;7.788;2023-06-26T07:44:56;28.30;1.00
11009;DHT22;5557;51.670;7.788;2023-06-26T07:47:23;28.30;1.00
11009;DHT22;5557;51.670;7.788;2023-06-26T07:49:52;28.40;1.00
11009;DHT22;5557;51.670;7.788;2023-06-26T07:52:19;28.40;1.00
11009;DHT22;5557;51.670;7.788;2023-06-26T07:54:46;28.50;1.00
11009;DHT22;5557;51.670;7.788;2023-06-26T07:57:13;28.70;1.00
11009;DHT22;5557;51.670;7.788;2023-06-26T07:59:40;28.50;1.00
11009;DHT22;5557;51.670;7.788;2023-06-26T08:02:07;28.50;1.00
11009;DHT22;5557;51.670;7.788;2023-06-26T08:04:35;28.70;1.00
11009;DHT22;5557;51.670;7.788;2023-06-26T08:07:02;29.10;1.00
11009;DHT22;5557;51.670;7.788;2023-06-26T08:09:32;29.60;1.00
11009;DHT22;5557;51.670;7.788;2023-06-26T08:12:00;29.70;1.00
11009;DHT22;5557;51.670;7.788;2023-06-26T08:14:27;29.60;1.00
11009;DHT22;5557;51.670;7.788;2023-06-26T08:16:54;29.50;1.00
11009;DHT22;5557;51.670;7.788;2023-06-26T08:19:22;29.50;1.00
11009;DHT22;5557;51.670;7.788;2023-06-26T08:21:49;30.10;1.00
11009;DHT22;5557;51.670;7.788;2023-06-26T08:24:16;30.20;1.00
11009;DHT22;5557;51.670;7.788;2023-06-26T08:26:46;30.30;1.00
11009;DHT22;5557;51.670;7.788;2023-06-26T08:29:14;30.50;1.00
11009;DHT22;5557;51.670;7.788;2023-06-26T08:31:42;30.50;1.00
11009;DHT22;5557;51.670;7.788;2023-06-26T08:34:10;30.90;1.00
11009;DHT22;5557;51.670;7.788;2023-06-26T08:36:36;30.60;1.00
11009;DHT22;5557;51.670;7.788;2023-06-26T08:39:03;29.90;1.00
11009;DHT22;5557;51.670;7.788;2023-06-26T08:41:38;29.50;1.00
11009;DHT22;5557;51.670;7.788;2023-06-26T08:44:05;28.90;1.00
11009;DHT22;5557;51.670;7.788;2023-06-26T08:46:33;28.20;1.00
11009;DHT22;5557;51.670;7.788;2023-06-26T08:49:07;28.30;1.00
11009;DHT22;5557;51.670;7.788;2023-06-26T08:51:39;27.70;1.00
11009;DHT22;5557;51.670;7.788;2023-06-26T08:54:12;27.50;1.00
11009;DHT22;5557;51.670;7.788;2023-06-26T08:56:42;27.30;1.00
11009;DHT22;5557;51.670;7.788;2023-06-26T08:59:10;28.10;1.00
11009;DHT22;5557;51.670;7.788;2023-06-26T09:01:37;28.40;1.00
11009;DHT22;5557;51.670;7.788;2023-06-26T09:04:05;28.00;1.00
11009;DHT22;5557;51.670;7.788;2023-06-26T09:06:33;28.30;1.00
11009;DHT22;5557;51.670;7.788;2023-06-26T09:09:00;29.20;1.00
11009;DHT22;5557;51.670;7.788;2023-06-26T09:11:27;30.20;1.00
11009;DHT22;5557;51.670;7.788;2023-06-26T09:13:55;30.00;1.00
11009;DHT22;5557;51.670;7.788;2023-06-26T09:16:26;29.30;1.00
11009;DHT22;5557;51.670;7.788;2023-06-26T09:18:55;28.60;1.00
11009;DHT22;5557;51.670;7.788;2023-06-26T09:21:22;28.00;1.00
11009;DHT22;5557;51.670;7.788;2023-06-26T09:23:52;28.00;1.00
11009;DHT22;5557;51.670;7.788;2023-06-26T09:26:21;28.10;1.00
11009;DHT22;5557;51.670;7.788;2023-06-26T09:28:53;28.50;1.00
11009;DHT22;5557;51.670;7.788;2023-06-26T09:31:20;28.60;1.00
11009;DHT22;5557;51.670;7.788;2023-06-26T09:34:06;29.00;1.00
11009;DHT22;5557;51.670;7.788;2023-06-26T09:36:34;30.20;1.00
11009;DHT22;5557;51.670;7.788;2023-06-26T09:39:08;29.80;1.00
11009;DHT22;5557;51.670;7.788;2023-06-26T09:41:41;29.60;1.00
11009;DHT22;5557;51.670;7.788;2023-06-26T09:44:10;29.80;1.00
11009;DHT22;5557;51.670;7.788;2023-06-26T09:46:38;29.20;1.00
11009;DHT22;5557;51.670;7.788;2023-06-26T09:49:10;29.00;1.00
11009;DHT22;5557;51.670;7.788;2023-06-26T09:51:41;29.50;1.00
11009;DHT22;5557;51.670;7.788;2023-06-26T09:54:10;30.00;1.00
11009;DHT22;5557;51.670;7.788;2023-06-26T09:56:37;30.00;1.00
11009;DHT22;5557;51.670;7.788;2023-06-26T09:59:05;29.60;1.00
11009;DHT22;5557;51.670;7.788;2023-06-26T10:01:33;29.60;1.00
11009;DHT22;5557;51.670;7.788;2023-06-26T10:04:01;29.20;1.00
11009;DHT22;5557;51.670;7.788;2023-06-26T10:06:35;28.80;1.00
11009;DHT22;5557;51.670;7.788;2023-06-26T10:09:04;28.70;1.00
11009;DHT22;5557;51.670;7.788;2023-06-26T10:11:51;28.90;1.00
11009;DHT22;5557;51.670;7.788;2023-06-26T10:14:21;28.50;1.00
11009;DHT22;5557;51.670;7.788;2023-06-26T10:16:49;28.00;1.00
11009;DHT22;5557;51.670;7.788;2023-06-26T10:19:19;27.70;1.00
11009;DHT22;5557;51.670;7.788;2023-06-26T10:21:55;28.00;1.00
11009;DHT22;5557;51.670;7.788;2023-06-26T10:24:24;27.80;1.00
11009;DHT22;5557;51.670;7.788;2023-06-26T10:26:59;27.40;1.00
11009;DHT22;5557;51.670;7.788;2023-06-26T10:29:28;27.00;1.00
11009;DHT22;5557;51.670;7.788;2023-06-26T10:31:58;27.40;1.00
11009;DHT22;5557;51.670;7.788;2023-06-26T10:34:30;28.00;1.00
11009;DHT22;5557;51.670;7.788;2023-06-26T10:37:01;28.10;1.00
11009;DHT22;5557;51.670;7.788;2023-06-26T10:39:49;27.80;1.00
11009;DHT22;5557;51.670;7.788;2023-06-26T10:42:17;27.40;1.00
11009;DHT22;5557;51.670;7.788;2023-06-26T10:44:47;27.00;1.00
11009;DHT22;5557;51.670;7.788;2023-06-26T10:47:40;27.00;1.00
11009;DHT22;5557;51.670;7.788;2023-06-26T10:50:37;27.50;1.00
11009;DHT22;5557;51.670;7.788;2023-06-26T10:56:06;28.30;1.00
11009;DHT22;5557;51.670;7.788;2023-06-26T10:58:41;28.40;1.00
11009;DHT22;5557;51.670;7.788;2023-06-26T11:01:18;28.60;1.00
11009;DHT22;5557;51.670;7.788;2023-06-26T11:06:36;28.70;1.00
11009;DHT22;5557;51.670;7.788;2023-06-26T11:09:09;29.00;1.00
11009;DHT22;5557;51.670;7.788;2023-06-26T11:11:57;28.80;1.00
11009;DHT22;5557;51.670;7.788;2023-06-26T11:14:26;28.80;1.00
11009;DHT22;5557;51.670;7.788;2023-06-26T11:16:57;28.80;1.00
11009;DHT22;5557;51.670;7.788;2023-06-26T11:19:26;29.00;1.00
11009;DHT22;5557;51.670;7.788;2023-06-26T11:22:03;29.10;1.00
11009;DHT22;5557;51.670;7.788;2023-06-26T11:24:31;28.90;1.00
11009;DHT22;5557;51.670;7.788;2023-06-26T11:27:02;28.80;1.00
11009;DHT22;5557;51.670;7.788;2023-06-26T11:29:31;28.80;1.00
11009;DHT22;5557;51.670;7.788;2023-06-26T11:31:59;28.90;1.00
11009;DHT22;5557;51.670;7.788;2023-06-26T11:34:31;29.10;1.00
11009;DHT22;5557;51.670;7.788;2023-06-26T11:36:59;29.60;1.00
11009;DHT22;5557;51.670;7.788;2023-06-26T11:39:28;29.50;1.00
11009;DHT22;5557;51.670;7.788;2023-06-26T11:41:55;29.50;1.00
11009;DHT22;5557;51.670;7.788;2023-06-26T11:44:23;29.40;1.00
11009;DHT22;5557;51.670;7.788;2023-06-26T11:46:53;29.00;1.00
11009;DHT22;5557;51.670;7.788;2023-06-26T11:49:22;29.00;1.00
11009;DHT22;5557;51.670;7.788;2023-06-26T11:51:50;29.10;1.00
11009;DHT22;5557;51.670;7.788;2023-06-26T11:54:23;29.00;1.00
11009;DHT22;5557;51.670;7.788;2023-06-26T11:56:55;28.80;1.00
11009;DHT22;5557;51.670;7.788;2023-06-26T11:59:39;28.50;1.00
11009;DHT22;5557;51.670;7.788;2023-06-26T12:02:13;27.60;1.00
11009;DHT22;5557;51.670;7.788;2023-06-26T12:04:42;26.90;1.00
11009;DHT22;5557;51.670;7.788;2023-06-26T12:07:09;26.60;1.00
11009;DHT22;5557;51.670;7.788;2023-06-26T12:09:42;26.50;1.00
11009;DHT22;5557;51.670;7.788;2023-06-26T12:12:11;26.80;1.00
11009;DHT22;5557;51.670;7.788;2023-06-26T12:14:39;26.90;1.00
11009;DHT22;5557;51.670;7.788;2023-06-26T12:17:12;26.80;1.00
11009;DHT22;5557;51.670;7.788;2023-06-26T12:19:45;26.80;1.00
11009;DHT22;5557;51.670;7.788;2023-06-26T12:22:15;27.00;1.00
11009;DHT22;5557;51.670;7.788;2023-06-26T12:24:44;27.10;1.00
11009;DHT22;5557;51.670;7.788;2023-06-26T12:27:13;26.90;1.00
11009;DHT22;5557;51.670;7.788;2023-06-26T12:29:50;26.70;1.00
11009;DHT22;5557;51.670;7.788;2023-06-26T12:32:18;26.40;1.00
11009;DHT22;5557;51.670;7.788;2023-06-26T12:34:48;26.20;1.00
11009;DHT22;5557;51.670;7.788;2023-06-26T12:37:16;26.10;1.00
11009;DHT22;5557;51.670;7.788;2023-06-26T12:40:16;26.10;1.00
11009;DHT22;5557;51.670;7.788;2023-06-26T12:42:45;26.30;1.00
11009;DHT22;5557;51.670;7.788;2023-06-26T12:45:15;26.40;1.00
11009;DHT22;5557;51.670;7.788;2023-06-26T12:48:13;26.60;1.00
11009;DHT22;5557;51.670;7.788;2023-06-26T12:50:44;27.00;1.00
11009;DHT22;5557;51.670;7.788;2023-06-26T12:53:11;26.60;1.00
11009;DHT22;5557;51.670;7.788;2023-06-26T12:55:41;26.30;1.00
11009;DHT22;5557;51.670;7.788;2023-06-26T12:58:08;26.20;1.00
11009;DHT22;5557;51.670;7.788;2023-06-26T13:00:35;26.30;1.00
11009;DHT22;5557;51.670;7.788;2023-06-26T13:03:02;26.60;1.00
11009;DHT22;5557;51.670;7.788;2023-06-26T13:05:29;27.10;1.00
11009;DHT22;5557;51.670;7.788;2023-06-26T13:07:56;27.30;1.00
11009;DHT22;5557;51.670;7.788;2023-06-26T13:10:25;27.30;1.00
11009;DHT22;5557;51.670;7.788;2023-06-26T13:12:55;27.20;1.00
11009;DHT22;5557;51.670;7.788;2023-06-26T13:15:22;26.80;1.00
11009;DHT22;5557;51.670;7.788;2023-06-26T13:17:52;26.50;1.00
11009;DHT22;5557;51.670;7.788;2023-06-26T13:20:20;26.50;1.00
11009;DHT22;5557;51.670;7.788;2023-06-26T13:22:47;26.60;1.00
11009;DHT22;5557;51.670;7.788;2023-06-26T13:25:14;26.40;1.00
11009;DHT22;5557;51.670;7.788;2023-06-26T13:27:41;26.30;1.00
11009;DHT22;5557;51.670;7.788;2023-06-26T13:30:08;26.20;1.00
11009;DHT22;5557;51.670;7.788;2023-06-26T13:32:36;26.20;1.00
11009;DHT22;5557;51.670;7.788;2023-06-26T13:35:04;26.20;1.00
11009;DHT22;5557;51.670;7.788;2023-06-26T13:37:32;25.90;1.00
11009;DHT22;5557;51.670;7.788;2023-06-26T13:40:01;25.80;1.00
11009;DHT22;5557;51.670;7.788;2023-06-26T13:42:29;25.80;1.00
11009;DHT22;5557;51.670;7.788;2023-06-26T13:44:56;26.00;1.00
11009;DHT22;5557;51.670;7.788;2023-06-26T13:47:33;26.00;1.00
11009;DHT22;5557;51.670;7.788;2023-06-26T13:50:01;26.10;1.00
11009;DHT22;5557;51.670;7.788;2023-06-26T13:52:28;26.00;1.00
11009;DHT22;5557;51.670;7.788;2023-06-26T13:54:55;25.80;1.00
11009;DHT22;5557;51.670;7.788;2023-06-26T13:57:22;25.50;1.00
11009;DHT22;5557;51.670;7.788;2023-06-26T13:59:50;25.40;1.00
11009;DHT22;5557;51.670;7.788;2023-06-26T14:02:17;25.30;1.00
11009;DHT22;5557;51.670;7.788;2023-06-26T14:04:44;25.40;1.00
11009;DHT22;5557;51.670;7.788;2023-06-26T14:07:11;25.30;1.00
11009;DHT22;5557;51.670;7.788;2023-06-26T14:09:38;25.20;1.00
11009;DHT22;5557;51.670;7.788;2023-06-26T14:12:06;25.20;1.00
11009;DHT22;5557;51.670;7.788;2023-06-26T14:14:35;25.10;1.00
11009;DHT22;5557;51.670;7.788;2023-06-26T14:17:02;25.20;1.00
11009;DHT22;5557;51.670;7.788;2023-06-26T14:19:29;25.30;1.00
11009;DHT22;5557;51.670;7.788;2023-06-26T14:21:56;25.40;1.00
11009;DHT22;5557;51.670;7.788;2023-06-26T14:24:24;25.50;1.00
11009;DHT22;5557;51.670;7.788;2023-06-26T14:26:51;25.50;1.00
11009;DHT22;5557;51.670;7.788;2023-06-26T14:29:18;25.30;1.00
11009;DHT22;5557;51.670;7.788;2023-06-26T14:31:47;25.20;1.00
11009;DHT22;5557;51.670;7.788;2023-06-26T14:34:17;25.10;1.00
11009;DHT22;5557;51.670;7.788;2023-06-26T14:36:44;25.10;1.00
11009;DHT22;5557;51.670;7.788;2023-06-26T14:39:11;25.20;1.00
11009;DHT22;5557;51.670;7.788;2023-06-26T14:41:39;25.10;1.00
11009;DHT22;5557;51.670;7.788;2023-06-26T14:44:06;25.10;1.00
11009;DHT22;5557;51.670;7.788;2023-06-26T14:46:37;25.10;1.00
11009;DHT22;5557;51.670;7.788;2023-06-26T14:49:04;24.80;1.00
11009;DHT22;5557;51.670;7.788;2023-06-26T14:51:31;24.60;1.00
11009;DHT22;5557;51.670;7.788;2023-06-26T14:53:58;24.40;1.00
11009;DHT22;5557;51.670;7.788;2023-06-26T14:56:25;24.40;1.00
11009;DHT22;5557;51.670;7.788;2023-06-26T14:58:52;24.30;1.00
11009;DHT22;5557;51.670;7.788;2023-06-26T15:01:20;24.20;1.00
11009;DHT22;5557;51.670;7.788;2023-06-26T15:03:47;24.20;1.00
11009;DHT22;5557;51.670;7.788;2023-06-26T15:06:14;24.20;1.00
11009;DHT22;5557;51.670;7.788;2023-06-26T15:08:41;24.30;1.00
11009;DHT22;5557;51.670;7.788;2023-06-26T15:11:09;24.40;1.00
11009;DHT22;5557;51.670;7.788;2023-06-26T15:13:36;24.40;1.00
11009;DHT22;5557;51.670;7.788;2023-06-26T15:16:03;24.50;1.00
11009;DHT22;5557;51.670;7.788;2023-06-26T15:18:30;24.50;1.00
11009;DHT22;5557;51.670;7.788;2023-06-26T15:20:57;24.50;1.00
11009;DHT22;5557;51.670;7.788;2023-06-26T15:23:24;24.50;1.00
11009;DHT22;5557;51.670;7.788;2023-06-26T15:25:51;24.50;1.00
11009;DHT22;5557;51.670;7.788;2023-06-26T15:28:18;24.60;1.00
11009;DHT22;5557;51.670;7.788;2023-06-26T15:30:45;24.60;1.00
11009;DHT22;5557;51.670;7.788;2023-06-26T15:33:13;24.50;1.00
11009;DHT22;5557;51.670;7.788;2023-06-26T15:35:40;24.40;1.00
11009;DHT22;5557;51.670;7.788;2023-06-26T15:38:07;24.50;1.00
11009;DHT22;5557;51.670;7.788;2023-06-26T15:40:34;24.60;1.00
11009;DHT22;5557;51.670;7.788;2023-06-26T15:43:02;24.60;1.00
11009;DHT22;5557;51.670;7.788;2023-06-26T15:45:32;24.60;1.00
11009;DHT22;5557;51.670;7.788;2023-06-26T15:47:59;24.40;1.00
11009;DHT22;5557;51.670;7.788;2023-06-26T15:50:26;24.40;1.00
11009;DHT22;5557;51.670;7.788;2023-06-26T15:52:54;24.40;1.00
11009;DHT22;5557;51.670;7.788;2023-06-26T15:55:21;24.30;1.00
11009;DHT22;5557;51.670;7.788;2023-06-26T15:57:48;24.30;1.00
11009;DHT22;5557;51.670;7.788;2023-06-26T16:00:16;24.20;1.00
11009;DHT22;5557;51.670;7.788;2023-06-26T16:02:43;24.10;1.00
11009;DHT22;5557;51.670;7.788;2023-06-26T16:05:10;24.00;1.00
11009;DHT22;5557;51.670;7.788;2023-06-26T16:07:37;23.90;1.00
11009;DHT22;5557;51.670;7.788;2023-06-26T16:10:22;23.80;1.00
11009;DHT22;5557;51.670;7.788;2023-06-26T16:12:49;23.70;1.00
11009;DHT22;5557;51.670;7.788;2023-06-26T16:15:16;23.70;1.00